Time;durP1;ratioP1;P1;durP2;ratioP2;P2;SDS_P1;SDS_P2;PMS_P1;PMS_P2;Temp;Humidity;BMP_temperature;BMP_pressure;BME280_temperature;BME280_humidity;BME280_pressure;Samples;Min_cycle;Max_cycle;Signal;HPM_P1;HPM_P2
2022/03/27 00:00:26;;;;;;;22.47;13.70;;;11.50;48.70;;;;;;4993243;28;20386;-73
2022/03/27 00:02:52;;;;;;;20.75;12.60;;;11.50;48.60;;;;;;4993502;28;20387;-74
2022/03/27 00:05:17;;;;;;;20.77;12.20;;;11.50;48.80;;;;;;4992801;28;20397;-73
2022/03/27 00:07:43;;;;;;;21.30;12.13;;;11.50;49.10;;;;;;4992559;28;20474;-74
2022/03/27 00:10:09;;;;;;;20.80;12.77;;;11.50;49.20;;;;;;4992496;28;20410;-73
2022/03/27 00:12:35;;;;;;;20.07;12.10;;;11.40;49.80;;;;;;4991725;28;20558;-73
2022/03/27 00:15:01;;;;;;;17.40;11.20;;;11.40;50.50;;;;;;4974310;28;20391;-73
2022/03/27 00:17:29;;;;;;;18.00;12.02;;;11.50;50.70;;;;;;4992042;28;20643;-74
2022/03/27 00:19:56;;;;;;;20.40;11.87;;;11.50;51.00;;;;;;4991509;28;20452;-73
2022/03/27 00:22:22;;;;;;;18.10;11.52;;;11.50;51.00;;;;;;4991883;28;20890;-73
2022/03/27 00:24:48;;;;;;;15.60;11.43;;;11.50;50.80;;;;;;4992083;28;20484;-74
2022/03/27 00:27:13;;;;;;;18.95;11.10;;;11.50;51.00;;;;;;4992033;28;20525;-72
2022/03/27 00:29:39;;;;;;;17.27;11.37;;;11.40;50.90;;;;;;4991629;28;20432;-72
2022/03/27 00:32:05;;;;;;;21.13;11.73;;;11.50;50.80;;;;;;4991501;28;20453;-72
2022/03/27 00:34:31;;;;;;;20.60;12.20;;;11.40;51.10;;;;;;4991669;28;20856;-72
2022/03/27 00:36:57;;;;;;;16.55;11.60;;;11.40;51.50;;;;;;4991774;28;20410;-72
2022/03/27 00:39:22;;;;;;;21.73;11.68;;;11.30;52.10;;;;;;4991924;28;20392;-72
2022/03/27 00:41:49;;;;;;;16.90;10.47;;;11.30;52.40;;;;;;4991803;28;20899;-72
2022/03/27 00:44:15;;;;;;;17.52;11.65;;;11.30;52.60;;;;;;4992852;28;20386;-74
2022/03/27 00:46:41;;;;;;;17.20;11.30;;;11.30;53.30;;;;;;4992982;28;20401;-76
2022/03/27 00:49:07;;;;;;;18.80;11.80;;;11.20;53.70;;;;;;4996991;28;20645;-76
2022/03/27 00:51:33;;;;;;;19.20;12.02;;;11.10;54.50;;;;;;4979038;28;20395;-76
2022/03/27 00:54:01;;;;;;;18.50;12.00;;;10.90;55.80;;;;;;4975438;28;20407;-77
2022/03/27 00:56:26;;;;;;;17.80;12.37;;;10.80;57.40;;;;;;4993341;28;20479;-77
2022/03/27 00:58:52;;;;;;;24.17;14.70;;;10.60;59.10;;;;;;4974630;28;20394;-77
2022/03/27 01:01:33;;;;;;;24.90;14.87;;;10.70;58.50;;;;;;4975416;28;20387;-77
2022/03/27 01:03:59;;;;;;;21.23;11.85;;;10.80;57.40;;;;;;4992543;28;20417;-77
2022/03/27 01:06:35;;;;;;;19.85;11.38;;;10.90;57.10;;;;;;4976506;28;20387;-77
2022/03/27 01:11:49;;;;;;;23.13;12.80;;;10.90;57.30;;;;;;4999589;28;20429;-77
2022/03/27 01:14:22;;;;;;;21.40;13.25;;;10.90;57.70;;;;;;4999487;28;20383;-77
2022/03/27 01:16:57;;;;;;;21.70;12.95;;;10.80;58.80;;;;;;5001866;28;20486;-77
2022/03/27 01:19:23;;;;;;;24.33;13.45;;;10.70;59.80;;;;;;5002963;28;20425;-77
2022/03/27 01:21:49;;;;;;;20.20;13.37;;;10.70;61.10;;;;;;5000248;28;20438;-78
2022/03/27 01:24:17;;;;;;;24.80;12.13;;;10.70;61.10;;;;;;4996318;28;20402;-78
2022/03/27 01:26:44;;;;;;;24.05;13.18;;;10.70;61.10;;;;;;4994342;28;20943;-78
2022/03/27 01:29:09;;;;;;;23.42;12.65;;;10.70;61.40;;;;;;4976930;28;20899;-78
2022/03/27 01:31:35;;;;;;;22.60;13.20;;;10.50;63.20;;;;;;4995209;28;20394;-78
2022/03/27 01:34:02;;;;;;;24.70;13.10;;;10.50;64.20;;;;;;4996590;28;20497;-78
2022/03/27 01:36:34;;;;;;;24.02;12.10;;;10.50;64.80;;;;;;5001122;28;20413;-78
2022/03/27 01:39:02;;;;;;;21.17;12.30;;;10.40;65.50;;;;;;4980351;28;20387;-78
2022/03/27 01:41:28;;;;;;;22.05;11.68;;;10.50;66.30;;;;;;4981943;28;20440;-78
2022/03/27 01:43:54;;;;;;;19.00;11.63;;;10.50;67.10;;;;;;4975298;28;20384;-78
2022/03/27 01:46:19;;;;;;;23.15;13.10;;;10.50;67.30;;;;;;4975295;28;20464;-77
2022/03/27 01:48:46;;;;;;;20.48;12.50;;;10.50;68.30;;;;;;4975666;28;20392;-77
2022/03/27 01:51:12;;;;;;;22.80;12.00;;;10.40;68.40;;;;;;4977963;28;20400;-78
2022/03/27 01:53:39;;;;;;;19.92;12.43;;;10.30;69.30;;;;;;4956358;28;20392;-77
2022/03/27 01:56:07;;;;;;;23.20;12.93;;;10.30;70.70;;;;;;4972825;28;20446;-76
2022/03/27 01:58:36;;;;;;;21.33;13.02;;;10.20;72.50;;;;;;4975910;28;20854;-76
2022/03/27 02:01:01;;;;;;;19.10;12.70;;;10.30;72.30;;;;;;4960676;28;20813;-76
2022/03/27 02:03:28;;;;;;;18.23;12.52;;;10.10;74.10;;;;;;4960674;28;20396;-77
2022/03/27 02:05:55;;;;;;;21.05;12.20;;;10.10;74.00;;;;;;4972249;28;20768;-76
2022/03/27 02:08:21;;;;;;;21.50;12.65;;;10.20;73.70;;;;;;4974054;28;20400;-78
2022/03/27 02:10:47;;;;;;;21.85;11.90;;;10.20;73.70;;;;;;4973638;28;20431;-78
2022/03/27 02:13:14;;;;;;;24.35;11.55;;;10.20;74.90;;;;;;4972919;28;20507;-78
2022/03/27 02:15:40;;;;;;;21.33;11.87;;;10.30;74.80;;;;;;4975834;28;20463;-77
2022/03/27 02:18:06;;;;;;;22.77;11.77;;;10.30;75.40;;;;;;4996493;28;20867;-78
2022/03/27 02:20:31;;;;;;;24.55;12.30;;;10.20;75.90;;;;;;4995558;28;20398;-76
2022/03/27 02:22:57;;;;;;;19.67;11.47;;;10.20;76.70;;;;;;4994060;28;20725;-76
2022/03/27 02:25:23;;;;;;;21.80;12.30;;;10.10;77.30;;;;;;4994504;28;20461;-76
2022/03/27 02:27:48;;;;;;;20.37;12.20;;;10.10;76.70;;;;;;4994723;28;20762;-76
2022/03/27 02:30:15;;;;;;;26.27;12.67;;;10.10;77.80;;;;;;4977531;28;20402;-76
2022/03/27 02:32:41;;;;;;;26.98;12.95;;;10.10;78.10;;;;;;4994260;28;20418;-77
2022/03/27 02:35:07;;;;;;;23.52;13.15;;;10.10;78.40;;;;;;4993999;28;20737;-76
2022/03/27 02:37:32;;;;;;;27.05;13.60;;;10.00;79.00;;;;;;4976513;28;20481;-77
2022/03/27 02:39:58;;;;;;;22.88;13.20;;;10.00;79.70;;;;;;4993724;28;20390;-77
2022/03/27 02:42:23;;;;;;;26.60;13.52;;;10.00;80.10;;;;;;4993691;28;20390;-77
2022/03/27 02:44:49;;;;;;;29.85;15.05;;;10.00;81.80;;;;;;4994276;28;20397;-76
2022/03/27 02:47:16;;;;;;;24.25;14.52;;;9.90;82.50;;;;;;4994343;28;20409;-77
2022/03/27 02:49:41;;;;;;;24.05;13.90;;;9.90;84.60;;;;;;4994525;28;20414;-77
2022/03/27 02:52:07;;;;;;;22.90;13.75;;;9.90;83.70;;;;;;4994219;28;20395;-76
2022/03/27 02:54:32;;;;;;;23.55;13.00;;;9.90;83.20;;;;;;4994421;28;20399;-76
2022/03/27 02:56:58;;;;;;;27.35;14.70;;;9.80;83.90;;;;;;4994073;28;20390;-76
2022/03/27 02:59:25;;;;;;;24.50;14.60;;;9.80;84.60;;;;;;4989545;28;20392;-77
2022/03/27 03:01:51;;;;;;;21.35;13.82;;;9.80;84.10;;;;;;4976956;28;20793;-76
2022/03/27 03:04:17;;;;;;;23.98;14.77;;;9.80;84.40;;;;;;4979811;28;20404;-76
2022/03/27 03:06:43;;;;;;;27.25;15.45;;;9.80;85.40;;;;;;4977448;28;20427;-76
2022/03/27 03:09:10;;;;;;;27.07;16.23;;;9.70;86.30;;;;;;4977643;28;20821;-76
2022/03/27 03:11:35;;;;;;;21.63;15.00;;;9.70;87.30;;;;;;4976475;28;20462;-75
2022/03/27 03:14:02;;;;;;;25.58;16.27;;;9.60;88.10;;;;;;4975791;28;20484;-76
2022/03/27 03:16:29;;;;;;;30.80;16.80;;;9.60;89.40;;;;;;4981395;28;20399;-76
2022/03/27 03:18:55;;;;;;;29.58;17.55;;;9.60;90.20;;;;;;4994853;28;20410;-76
2022/03/27 03:21:21;;;;;;;26.77;17.37;;;9.60;90.30;;;;;;4998735;28;20379;-76
2022/03/27 03:23:47;;;;;;;31.63;17.33;;;9.60;90.60;;;;;;4993611;28;20466;-76
2022/03/27 03:26:12;;;;;;;27.70;17.38;;;9.50;91.10;;;;;;4992536;28;20481;-76
2022/03/27 03:28:38;;;;;;;26.97;17.40;;;9.50;91.10;;;;;;4993222;28;20398;-77
2022/03/27 03:31:05;;;;;;;34.20;19.73;;;9.50;90.70;;;;;;4979398;28;20433;-77
2022/03/27 03:33:31;;;;;;;33.35;18.23;;;9.40;94.30;;;;;;4997555;28;20395;-78
2022/03/27 03:35:57;;;;;;;29.83;18.50;;;9.40;93.30;;;;;;4993157;28;20879;-76
2022/03/27 03:38:22;;;;;;;35.92;19.33;;;9.40;93.00;;;;;;4993560;28;20392;-75
2022/03/27 03:40:48;;;;;;;34.00;19.23;;;9.40;93.60;;;;;;4992858;28;20879;-76
2022/03/27 03:43:14;;;;;;;32.60;18.63;;;9.30;94.00;;;;;;4992726;28;20489;-76
2022/03/27 03:45:40;;;;;;;32.92;19.88;;;9.40;94.10;;;;;;4975064;28;20937;-76
2022/03/27 03:48:06;;;;;;;29.08;19.13;;;9.30;94.70;;;;;;4992718;28;20426;-76
2022/03/27 03:50:35;;;;;;;38.60;21.33;;;9.30;95.10;;;;;;4992304;28;20764;-75
2022/03/27 03:53:01;;;;;;;33.60;20.05;;;9.30;96.40;;;;;;4992344;28;20950;-75
2022/03/27 03:55:26;;;;;;;36.08;21.42;;;9.30;96.30;;;;;;4992785;28;20947;-75
2022/03/27 03:57:52;;;;;;;33.00;21.43;;;9.30;95.20;;;;;;4992464;28;20478;-75
2022/03/27 04:00:18;;;;;;;40.13;21.70;;;9.30;95.40;;;;;;4979385;28;20393;-75
2022/03/27 04:02:43;;;;;;;39.83;23.83;;;9.30;95.60;;;;;;4978749;28;20462;-74
2022/03/27 04:05:09;;;;;;;43.35;24.05;;;9.20;96.10;;;;;;4988134;28;20406;-73
2022/03/27 04:07:35;;;;;;;40.95;23.83;;;9.20;99.20;;;;;;4979147;28;20420;-73
2022/03/27 04:10:00;;;;;;;40.78;23.17;;;9.40;97.60;;;;;;4986553;28;20431;-78
2022/03/27 04:12:26;;;;;;;42.92;24.42;;;9.30;95.40;;;;;;4980896;28;20417;-78
2022/03/27 04:14:51;;;;;;;43.90;24.83;;;9.20;96.80;;;;;;4965868;28;20476;-76
2022/03/27 04:17:17;;;;;;;46.53;25.87;;;9.20;97.60;;;;;;4980173;28;20440;-77
2022/03/27 04:19:43;;;;;;;52.10;28.50;;;9.20;97.60;;;;;;4981564;28;20499;-76
2022/03/27 04:22:08;;;;;;;53.73;28.50;;;9.10;98.60;;;;;;4984497;28;20423;-76
2022/03/27 04:24:34;;;;;;;52.63;28.57;;;9.10;99.10;;;;;;4970326;28;20429;-76
2022/03/27 04:26:59;;;;;;;57.93;31.50;;;9.10;99.60;;;;;;4980641;28;20478;-76
2022/03/27 04:29:26;;;;;;;65.87;32.30;;;9.10;99.80;;;;;;4981851;28;20487;-77
2022/03/27 04:31:52;;;;;;;61.35;31.80;;;9.20;99.90;;;;;;4984408;28;20411;-77
2022/03/27 04:34:17;;;;;;;62.60;32.40;;;9.20;99.90;;;;;;4989921;28;20570;-76
2022/03/27 04:36:43;;;;;;;64.30;33.63;;;9.30;99.90;;;;;;4983281;28;20739;-76
2022/03/27 04:39:08;;;;;;;66.97;35.43;;;9.30;99.90;;;;;;4979680;28;20394;-76
2022/03/27 04:41:34;;;;;;;72.80;36.07;;;9.40;99.40;;;;;;4979158;28;20420;-76
2022/03/27 04:44:00;;;;;;;73.68;38.88;;;9.50;99.00;;;;;;4993097;28;20902;-76
2022/03/27 04:46:26;;;;;;;78.28;37.65;;;9.60;98.70;;;;;;4987416;28;22400;-76
2022/03/27 04:48:51;;;;;;;76.68;38.00;;;9.60;99.20;;;;;;4981333;28;20418;-76
2022/03/27 04:51:17;;;;;;;73.25;37.33;;;9.60;97.60;;;;;;4962813;28;20408;-76
2022/03/27 04:53:43;;;;;;;75.30;39.08;;;9.70;98.10;;;;;;4987362;28;20405;-77
2022/03/27 04:56:08;;;;;;;89.60;40.30;;;9.70;96.60;;;;;;4988091;28;20413;-77
2022/03/27 04:58:35;;;;;;;78.15;37.38;;;9.80;96.50;;;;;;4970214;28;20427;-79
2022/03/27 05:01:00;;;;;;;75.85;38.30;;;9.90;94.60;;;;;;4966236;28;20456;-73
2022/03/27 05:03:26;;;;;;;84.30;39.00;;;10.00;92.40;;;;;;4984486;28;20408;-74
2022/03/27 05:05:52;;;;;;;74.75;40.45;;;10.00;92.20;;;;;;4980748;28;20412;-75
2022/03/27 05:08:17;;;;;;;98.60;41.92;;;10.00;91.90;;;;;;4966919;28;20410;-73
2022/03/27 05:10:43;;;;;;;82.45;40.40;;;10.10;92.20;;;;;;4985407;28;20411;-78
2022/03/27 05:13:09;;;;;;;83.97;41.25;;;10.10;92.00;;;;;;4981956;28;20485;-77
2022/03/27 05:15:35;;;;;;;90.47;41.38;;;10.10;91.90;;;;;;4983890;28;20518;-77
2022/03/27 05:18:01;;;;;;;92.07;41.50;;;10.20;91.20;;;;;;4989225;28;20760;-74
2022/03/27 05:20:30;;;;;;;94.90;41.77;;;10.20;88.80;;;;;;4991757;28;20898;-74
2022/03/27 05:22:57;;;;;;;90.63;41.80;;;10.20;88.10;;;;;;4997918;28;20387;-75
2022/03/27 05:25:22;;;;;;;95.72;43.70;;;10.20;88.20;;;;;;4995014;28;20414;-75
2022/03/27 05:27:57;;;;;;;96.30;41.60;;;10.20;90.20;;;;;;4991297;28;20390;-75
2022/03/27 05:30:25;;;;;;;87.75;40.20;;;10.10;90.30;;;;;;4992146;28;20421;-75
2022/03/27 05:32:53;;;;;;;82.70;39.55;;;10.20;90.20;;;;;;4990978;28;20887;-74
2022/03/27 05:35:20;;;;;;;89.10;40.72;;;10.20;88.40;;;;;;4991840;28;20394;-75
2022/03/27 05:37:47;;;;;;;81.53;38.45;;;10.20;88.90;;;;;;4991286;28;20522;-75
2022/03/27 05:40:17;;;;;;;81.32;39.63;;;10.30;88.30;;;;;;4990834;28;20863;-75
2022/03/27 05:42:43;;;;;;;79.30;40.22;;;10.40;87.70;;;;;;4991441;28;20394;-74
2022/03/27 05:45:10;;;;;;;86.30;39.88;;;10.40;87.20;;;;;;4991430;28;20386;-75
2022/03/27 05:47:41;;;;;;;77.45;39.40;;;10.60;84.60;;;;;;4991475;28;20390;-75
2022/03/27 05:50:08;;;;;;;79.80;38.38;;;10.60;82.30;;;;;;4992880;28;20775;-75
2022/03/27 05:52:34;;;;;;;76.68;38.95;;;10.60;80.70;;;;;;4994550;28;20383;-76
2022/03/27 05:54:59;;;;;;;74.30;36.97;;;10.70;81.20;;;;;;4995287;28;20386;-76
2022/03/27 05:57:25;;;;;;;68.03;36.08;;;10.70;82.10;;;;;;4995910;28;20390;-75
2022/03/27 05:59:51;;;;;;;71.85;35.58;;;10.70;80.80;;;;;;4995002;28;20409;-75
2022/03/27 06:02:16;;;;;;;63.38;33.72;;;10.80;79.40;;;;;;4994993;28;20402;-74
2022/03/27 06:04:42;;;;;;;63.08;33.85;;;10.80;78.80;;;;;;4995039;28;20460;-75
2022/03/27 06:07:09;;;;;;;66.57;34.33;;;10.70;79.40;;;;;;4995298;28;20403;-75
2022/03/27 06:09:35;;;;;;;57.55;30.67;;;10.70;80.20;;;;;;4994665;28;20406;-75
2022/03/27 06:12:02;;;;;;;63.17;34.30;;;10.60;79.40;;;;;;4977528;28;20395;-74
2022/03/27 06:14:28;;;;;;;62.97;34.63;;;10.60;80.80;;;;;;4995876;28;20386;-75
2022/03/27 06:16:54;;;;;;;65.30;35.00;;;10.60;81.20;;;;;;4996156;28;20382;-75
2022/03/27 06:19:20;;;;;;;66.55;33.70;;;10.60;81.60;;;;;;4996336;28;20398;-75
2022/03/27 06:21:46;;;;;;;58.50;33.30;;;10.60;79.80;;;;;;4998429;28;20386;-76
2022/03/27 06:24:12;;;;;;;62.03;35.60;;;10.60;79.80;;;;;;4996036;28;20390;-75
2022/03/27 06:26:41;;;;;;;62.67;36.00;;;10.60;80.30;;;;;;4995520;28;20863;-76
2022/03/27 06:29:10;;;;;;;65.15;35.90;;;10.60;81.10;;;;;;4994888;28;20410;-73
2022/03/27 06:31:38;;;;;;;68.20;36.35;;;10.70;78.60;;;;;;4994167;28;20902;-75
2022/03/27 06:34:04;;;;;;;63.30;36.25;;;10.80;75.90;;;;;;4994176;28;20394;-75
2022/03/27 06:36:30;;;;;;;67.07;37.00;;;10.90;77.60;;;;;;4994325;28;20400;-75
2022/03/27 06:38:55;;;;;;;65.25;35.45;;;11.00;73.50;;;;;;4994336;28;20476;-75
2022/03/27 06:41:21;;;;;;;74.30;38.72;;;11.00;73.50;;;;;;4995026;28;20414;-74
2022/03/27 06:43:47;;;;;;;76.85;40.15;;;11.00;74.00;;;;;;4995928;28;20390;-75
2022/03/27 06:46:16;;;;;;;70.57;40.35;;;11.00;75.50;;;;;;4997779;28;20382;-75
2022/03/27 06:48:46;;;;;;;73.47;39.13;;;11.00;77.30;;;;;;4996171;28;20394;-75
2022/03/27 06:51:14;;;;;;;75.22;39.78;;;11.20;71.90;;;;;;4996329;28;20441;-77
2022/03/27 06:53:40;;;;;;;80.03;40.45;;;11.20;73.00;;;;;;4978447;28;20419;-75
2022/03/27 06:56:06;;;;;;;79.93;39.23;;;11.30;71.20;;;;;;4994596;28;20382;-75
2022/03/27 06:58:32;;;;;;;82.78;40.60;;;11.40;69.60;;;;;;4994506;28;20390;-76
2022/03/27 07:03:42;;;;;;;77.10;40.23;;;11.50;69.00;;;;;;4994668;28;20425;-75
2022/03/27 07:06:08;;;;;;;87.20;42.83;;;11.50;68.30;;;;;;4993917;28;20390;-74
2022/03/27 07:08:34;;;;;;;85.53;42.37;;;11.60;67.10;;;;;;4993718;28;20466;-75
2022/03/27 07:11:03;;;;;;;88.67;42.07;;;11.60;66.10;;;;;;4994615;28;20406;-76
2022/03/27 07:13:30;;;;;;;82.80;42.00;;;11.50;67.00;;;;;;4978559;28;20397;-76
2022/03/27 07:15:57;;;;;;;85.20;42.75;;;11.50;67.60;;;;;;4996278;28;20398;-76
2022/03/27 07:18:25;;;;;;;95.55;43.70;;;11.50;68.50;;;;;;4981927;28;20421;-75
2022/03/27 07:20:51;;;;;;;89.97;43.80;;;11.50;67.10;;;;;;5001881;28;20391;-77
2022/03/27 07:23:21;;;;;;;91.35;42.58;;;11.50;67.00;;;;;;5002645;28;20458;-75
2022/03/27 07:25:50;;;;;;;88.38;42.10;;;11.60;66.30;;;;;;4986387;28;20391;-75
2022/03/27 07:28:17;;;;;;;93.03;44.67;;;11.60;66.60;;;;;;5002179;28;20387;-75
2022/03/27 07:30:45;;;;;;;90.78;43.72;;;11.70;65.20;;;;;;4999541;28;20826;-75
2022/03/27 07:33:11;;;;;;;88.70;43.80;;;11.80;66.10;;;;;;4994505;28;20390;-75
2022/03/27 07:35:37;;;;;;;88.57;42.28;;;11.90;63.50;;;;;;4993250;28;20497;-75
2022/03/27 07:38:04;;;;;;;93.00;43.63;;;12.10;60.30;;;;;;4993846;28;20382;-76
2022/03/27 07:40:29;;;;;;;94.20;44.13;;;12.10;59.90;;;;;;4995173;28;20537;-76
2022/03/27 07:42:56;;;;;;;101.65;44.88;;;12.10;60.20;;;;;;4994977;28;20441;-75
2022/03/27 07:45:24;;;;;;;91.45;43.65;;;12.00;61.10;;;;;;4997061;28;20394;-76
2022/03/27 07:47:51;;;;;;;90.68;41.63;;;12.20;59.50;;;;;;4995325;28;20390;-75
2022/03/27 07:50:18;;;;;;;91.82;42.97;;;12.30;56.80;;;;;;4994764;28;20418;-76
2022/03/27 07:52:44;;;;;;;92.35;44.45;;;12.10;58.80;;;;;;4995852;28;20426;-75
2022/03/27 07:55:12;;;;;;;87.32;43.63;;;12.10;59.40;;;;;;4995319;28;20391;-76
2022/03/27 07:57:38;;;;;;;84.47;42.50;;;12.10;59.80;;;;;;4995099;28;20437;-75
2022/03/27 08:00:07;;;;;;;93.70;43.65;;;12.40;59.00;;;;;;4996183;28;20403;-75
2022/03/27 08:02:33;;;;;;;83.65;40.92;;;12.60;56.70;;;;;;4994690;28;20386;-75
2022/03/27 08:04:58;;;;;;;88.27;42.37;;;12.70;54.50;;;;;;4993697;28;20398;-76
2022/03/27 08:07:24;;;;;;;92.43;44.60;;;12.80;53.70;;;;;;4993650;28;20795;-76
2022/03/27 08:09:50;;;;;;;78.37;40.90;;;12.70;56.20;;;;;;4993044;28;20410;-77
2022/03/27 08:12:17;;;;;;;86.37;43.10;;;13.10;51.70;;;;;;4991443;28;20445;-74
2022/03/27 08:14:43;;;;;;;82.03;40.90;;;13.20;51.20;;;;;;4991740;28;20378;-75
2022/03/27 08:17:09;;;;;;;83.97;43.60;;;13.40;48.00;;;;;;4991886;28;20752;-75
2022/03/27 08:19:35;;;;;;;79.90;42.50;;;13.20;49.90;;;;;;4991717;28;20401;-75
2022/03/27 08:22:01;;;;;;;82.25;41.70;;;13.20;49.80;;;;;;4991762;28;20386;-75
2022/03/27 08:24:27;;;;;;;89.80;46.55;;;13.20;50.10;;;;;;4990602;28;20411;-75
2022/03/27 08:26:56;;;;;;;83.28;40.70;;;13.40;49.30;;;;;;4990291;28;20395;-76
2022/03/27 08:29:26;;;;;;;78.70;41.20;;;13.60;48.30;;;;;;4990142;28;20581;-75
2022/03/27 08:31:53;;;;;;;88.13;41.80;;;13.70;48.30;;;;;;4990291;28;20387;-76
2022/03/27 08:34:20;;;;;;;86.72;41.60;;;13.70;45.30;;;;;;4992107;28;20799;-75
2022/03/27 08:36:47;;;;;;;77.50;39.77;;;13.40;48.40;;;;;;4991416;28;20441;-75
2022/03/27 08:39:13;;;;;;;73.95;40.65;;;13.80;44.60;;;;;;4991625;28;20390;-76
2022/03/27 08:41:43;;;;;;;73.32;36.92;;;13.80;45.10;;;;;;4991217;28;20379;-76
2022/03/27 08:44:14;;;;;;;62.17;34.50;;;13.80;45.40;;;;;;4991469;28;20449;-74
2022/03/27 08:46:42;;;;;;;65.20;36.05;;;14.10;43.50;;;;;;4991606;28;20980;-75
2022/03/27 08:49:25;;;;;;;61.38;32.72;;;14.10;43.40;;;;;;4930100;28;1753188;-76
2022/03/27 08:52:10;;;;;;;60.83;35.10;;;14.40;40.50;;;;;;4992016;28;20442;-76
2022/03/27 08:54:54;;;;;;;62.85;34.83;;;14.40;41.20;;;;;;4992083;28;20748;-75
2022/03/27 08:57:30;;;;;;;60.67;34.22;;;14.40;41.20;;;;;;4991878;28;20394;-75
2022/03/27 08:59:57;;;;;;;61.65;35.08;;;14.50;40.90;;;;;;4974231;28;20434;-75
2022/03/27 09:02:24;;;;;;;63.30;34.65;;;14.60;39.80;;;;;;4991694;28;20449;-76
2022/03/27 09:04:54;;;;;;;58.67;33.20;;;14.80;38.70;;;;;;4991571;28;20923;-76
2022/03/27 09:07:23;;;;;;;61.30;34.50;;;14.80;38.10;;;;;;4991891;28;20799;-75
2022/03/27 09:09:53;;;;;;;64.35;34.90;;;14.80;37.80;;;;;;4991861;28;20402;-75
2022/03/27 09:12:20;;;;;;;66.40;35.13;;;15.00;37.90;;;;;;4993187;28;20387;-75
2022/03/27 09:14:46;;;;;;;48.15;29.15;;;15.20;36.30;;;;;;4991555;28;20484;-75
2022/03/27 09:17:13;;;;;;;52.42;31.85;;;14.90;36.10;;;;;;4992606;28;20890;-75
2022/03/27 09:19:41;;;;;;;56.97;31.83;;;14.50;38.70;;;;;;4991728;28;20414;-76
2022/03/27 09:22:15;;;;;;;57.40;30.60;;;14.10;40.30;;;;;;4974095;28;20898;-75
2022/03/27 09:24:42;;;;;;;55.75;30.70;;;13.90;42.00;;;;;;4977200;28;20406;-75
2022/03/27 09:27:08;;;;;;;56.87;30.40;;;13.80;44.20;;;;;;5005775;28;20498;-75
2022/03/27 09:29:54;;;;;;;54.00;30.63;;;13.80;43.40;;;;;;4998789;28;20445;-74
2022/03/27 09:32:28;;;;;;;65.07;31.92;;;13.60;44.30;;;;;;4997777;28;20779;-75
2022/03/27 09:35:06;;;;;;;58.97;31.58;;;13.70;44.10;;;;;;4977922;28;20394;-75
2022/03/27 09:37:35;;;;;;;64.53;33.03;;;13.80;43.40;;;;;;4995757;28;20379;-76
2022/03/27 09:40:02;;;;;;;63.08;33.53;;;13.70;43.90;;;;;;4995602;28;20398;-75
2022/03/27 09:42:28;;;;;;;62.22;33.90;;;13.80;44.40;;;;;;4995804;28;20780;-76
2022/03/27 09:45:20;;;;;;;59.37;32.40;;;14.10;42.80;;;;;;4995701;28;20402;-75
2022/03/27 09:47:48;;;;;;;53.20;30.03;;;14.20;41.60;;;;;;4995694;28;20386;-75
2022/03/27 09:50:36;;;;;;;54.20;29.83;;;13.90;41.90;;;;;;4995193;28;20910;-75
2022/03/27 09:53:23;;;;;;;59.28;30.80;;;13.70;43.00;;;;;;4995273;28;20391;-75
2022/03/27 09:56:12;;;;;;;57.42;30.23;;;13.60;44.70;;;;;;4977930;28;20406;-76
2022/03/27 09:58:45;;;;;;;52.75;29.40;;;13.50;44.40;;;;;;4995869;28;20390;-76
2022/03/27 10:01:18;;;;;;;55.75;30.55;;;13.50;45.80;;;;;;4995120;28;20466;-76
2022/03/27 10:04:03;;;;;;;53.90;29.25;;;13.50;46.80;;;;;;4996029;28;20391;-75
2022/03/27 10:06:37;;;;;;;51.80;29.60;;;13.60;45.50;;;;;;5000891;28;20397;-76
2022/03/27 10:09:05;;;;;;;53.60;29.58;;;13.80;43.80;;;;;;4998693;28;20394;-76
2022/03/27 10:11:32;;;;;;;45.78;26.35;;;13.90;42.40;;;;;;4995218;28;20864;-76
2022/03/27 10:13:57;;;;;;;46.63;26.20;;;14.00;41.60;;;;;;4995632;28;20398;-76
2022/03/27 10:16:29;;;;;;;45.80;25.42;;;13.80;44.30;;;;;;4997107;28;20425;-75
2022/03/27 10:18:59;;;;;;;48.38;28.15;;;13.60;44.60;;;;;;4996099;28;20416;-75
2022/03/27 10:21:26;;;;;;;45.47;26.60;;;13.50;45.60;;;;;;4997626;28;20390;-75
2022/03/27 10:24:00;;;;;;;41.35;25.27;;;13.60;44.90;;;;;;4996613;28;20954;-76
2022/03/27 10:26:26;;;;;;;47.00;26.40;;;13.70;43.70;;;;;;4995499;28;20755;-76
2022/03/27 10:28:52;;;;;;;40.97;25.15;;;13.80;43.30;;;;;;4981171;28;20485;-76
2022/03/27 10:31:19;;;;;;;41.40;25.40;;;13.90;42.50;;;;;;4981131;28;20408;-76
2022/03/27 10:33:46;;;;;;;40.03;25.03;;;14.00;41.90;;;;;;4995001;28;20390;-74
2022/03/27 10:36:12;;;;;;;42.67;25.83;;;14.00;41.30;;;;;;4994328;28;20389;-74
2022/03/27 10:39:02;;;;;;;40.38;25.83;;;14.00;42.00;;;;;;4994670;28;20386;-75
2022/03/27 10:42:06;;;;;;;40.58;26.55;;;14.10;40.10;;;;;;4994885;28;20383;-75
2022/03/27 10:44:56;;;;;;;45.50;26.07;;;14.20;39.80;;;;;;4977638;28;20383;-74
2022/03/27 10:47:24;;;;;;;46.97;25.40;;;14.10;39.80;;;;;;4977050;28;20419;-75
2022/03/27 10:50:22;;;;;;;49.28;29.02;;;13.80;41.20;;;;;;4994395;28;20437;-76
2022/03/27 10:52:51;;;;;;;46.05;27.50;;;13.90;42.30;;;;;;4994009;28;20449;-76
2022/03/27 10:55:17;;;;;;;47.60;28.98;;;14.10;40.70;;;;;;4994218;28;20467;-75
2022/03/27 10:57:49;;;;;;;46.45;26.67;;;14.30;39.70;;;;;;4994165;28;20394;-75
2022/03/27 11:00:35;;;;;;;50.03;28.50;;;14.40;38.80;;;;;;4994362;28;20475;-76
2022/03/27 11:03:01;;;;;;;44.72;27.15;;;14.40;38.80;;;;;;4993917;28;20401;-76
2022/03/27 11:05:35;;;;;;;45.40;27.03;;;14.50;37.90;;;;;;4993943;28;20971;-75
2022/03/27 11:08:18;;;;;;;50.70;29.27;;;14.40;38.20;;;;;;4993944;28;20390;-77
2022/03/27 11:10:55;;;;;;;49.83;29.58;;;14.40;38.30;;;;;;4993890;28;20518;-74
2022/03/27 11:13:26;;;;;;;52.38;28.20;;;14.60;37.30;;;;;;4994067;28;20387;-76
2022/03/27 11:16:11;;;;;;;54.00;29.15;;;14.60;36.10;;;;;;4994023;28;20437;-76
2022/03/27 11:18:43;;;;;;;46.63;28.13;;;14.50;36.60;;;;;;4994334;28;20383;-75
2022/03/27 11:21:11;;;;;;;54.92;30.65;;;14.40;37.20;;;;;;4993688;28;20441;-76
2022/03/27 11:23:39;;;;;;;53.60;29.33;;;14.60;37.90;;;;;;4993956;28;20402;-74
2022/03/27 11:26:19;;;;;;;54.50;29.77;;;14.90;36.50;;;;;;4996758;28;20758;-75
2022/03/27 11:28:58;;;;;;;50.65;29.77;;;15.10;34.90;;;;;;5001964;28;20426;-75
2022/03/27 11:31:30;;;;;;;55.60;29.20;;;15.20;33.70;;;;;;4995276;28;20764;-76
2022/03/27 11:34:16;;;;;;;51.67;28.35;;;15.30;33.90;;;;;;4993312;28;20721;-75
2022/03/27 11:36:44;;;;;;;58.10;30.13;;;15.30;33.40;;;;;;4993642;28;20748;-75
2022/03/27 11:39:23;;;;;;;51.00;29.83;;;15.40;34.00;;;;;;4993566;28;20442;-76
2022/03/27 11:41:48;;;;;;;54.60;29.40;;;15.50;32.70;;;;;;4992810;28;20533;-76
2022/03/27 11:44:17;;;;;;;53.70;29.75;;;15.60;32.10;;;;;;4993546;28;20772;-76
2022/03/27 11:47:03;;;;;;;51.40;28.93;;;15.60;31.90;;;;;;4993467;28;20394;-76
2022/03/27 11:49:40;;;;;;;50.05;28.33;;;15.60;32.60;;;;;;5006127;23;20454;-69
2022/03/27 11:52:11;;;;;;;49.60;28.83;;;15.80;32.20;;;;;;4992660;28;20390;-70
2022/03/27 11:54:37;;;;;;;52.40;29.67;;;15.90;30.70;;;;;;4992748;28;20379;-70
2022/03/27 11:57:04;;;;;;;53.50;29.55;;;16.00;30.30;;;;;;4993173;28;20889;-70
2022/03/27 11:59:31;;;;;;;51.60;28.60;;;16.00;30.10;;;;;;4992641;28;20408;-70
2022/03/27 12:01:57;;;;;;;49.88;29.20;;;16.00;30.00;;;;;;4992428;28;20391;-70
2022/03/27 12:04:25;;;;;;;49.88;27.67;;;16.10;30.10;;;;;;4992659;28;20449;-69
2022/03/27 12:06:58;;;;;;;47.75;29.00;;;16.10;29.60;;;;;;4992767;28;20394;-70
2022/03/27 12:09:25;;;;;;;55.95;29.30;;;16.10;30.20;;;;;;4992354;28;20386;-69
2022/03/27 12:12:11;;;;;;;47.53;29.08;;;16.20;29.20;;;;;;4992016;28;20390;-69
2022/03/27 12:14:56;;;;;;;46.75;28.42;;;16.30;30.00;;;;;;4992397;28;20717;-70
2022/03/27 12:17:24;;;;;;;53.83;29.50;;;16.30;29.70;;;;;;4992025;28;20387;-69
2022/03/27 12:20:00;;;;;;;53.65;28.98;;;16.50;28.70;;;;;;4974213;28;20880;-70
2022/03/27 12:22:49;;;;;;;49.83;27.30;;;16.60;27.20;;;;;;4991475;28;20398;-70
2022/03/27 12:25:14;;;;;;;48.60;26.95;;;16.50;26.90;;;;;;4991835;28;20441;-70
2022/03/27 12:30:38;;;;;;;47.30;26.85;;;16.40;27.60;;;;;;4939727;28;20593;-69
2022/03/27 12:33:04;;;;;;;44.00;25.00;;;16.40;28.10;;;;;;4993770;28;20482;-69
2022/03/27 12:35:31;;;;;;;43.58;25.40;;;16.60;28.00;;;;;;4994287;28;20448;-70
2022/03/27 12:37:58;;;;;;;47.08;27.30;;;16.50;28.00;;;;;;4992229;28;20410;-70
2022/03/27 12:40:25;;;;;;;43.88;25.77;;;16.60;27.40;;;;;;4996650;28;20401;-71
2022/03/27 12:42:55;;;;;;;45.47;26.97;;;16.70;27.10;;;;;;4995714;28;20409;-70